Terminal Aerodrome Forecast
Issued by NWS

Home | Current Version | Previous Version | Text Only | Print | Product List | Glossary On
Versions: 1 2 3 4 5 6 7 8 9 10 11 12 13 14 15 16 17 18 19
000
FTUS43 KDMX 240612 AAB
TAFFOD
TAF AMD
KFOD 240612Z 2406/2506 19010KT P6SM -SHRA VCTS BKN050CB
     FM241000 23007KT 5SM BR BKN008
     FM241400 32008KT P6SM SCT008 BKN015
     FM241700 36008KT P6SM BKN035
     FM250000 35002KT P6SM BKN100=

USA.gov is the U.S. government's official web portal to all federal, state and local government web resources and services.